Terminal Aerodrome Forecast
Issued by NWS

Home | Current Version | Previous Version | Text Only | Print | Product List | Glossary On
Versions: 1 2 3 4 5 6 7 8 9 10 11 12 13 14 15 16
385
FTUS43 KDTX 040527
TAFDET
TAF
KDET 040527Z 0406/0506 17006KT P6SM SCT070 BKN090
      TEMPO 0406/0409 -SHRA OVC070
     FM041300 18008KT P6SM SCT045 BKN080
     FM041800 15010KT P6SM SCT040 BKN150
     FM042200 08009KT 6SM -SHRA SCT028 BKN040 OVC100
     FM050300 01006KT P6SM SCT012 BKN030=

USA.gov is the U.S. government's official web portal to all federal, state and local government web resources and services.